หน้าหลัก
METAR-TAF:

METAR-TAF

ท่าอากาศยาน :

Seldovia, อะแลสกา, สหรัฐอเมริกา

ละติจูด: 59-27N, ลองจิจูด: 151-42W, ความสูง: 9 ม.

การสังเกตสภาพอากาศปัจจุบัน

รายงานได้ทำขึ้นเมื่อ 17 นาทีที่แล้ว ณ เวลา 23:10 UTC
ลม 3 นอตจากทิศทางซึ่งแปรผันได้
อุณหภูมิ 7°C
ความชื้น 81%
ความกดอากาศ 1005 hPa
ทัศนวิสัย: 4.8 กม.
มีเมฆมาก มืดครึ้มที่ความสูง 400 ฟุต
ฝนตกเล็กน้อย, หมอกน้ำค้าง

METAR: PASO 242310Z AUTO VRB03KT 3SM -RA BR OVC004 07/04 A2969 RMK AO2 P0000 T00670044 TSNO

เวลา: 15:27 (23:27 UTC)


TAF: หายไป

สังเกตการณ์สภาพอากาศและพยากรณ์อากาศของสนามบินมากกว่า 4000 แห่ง (รายงาน METAR และ TAF).

สถานีที่ดูได้จะแสดงไว้ด้วยจุดสีเหลืองและสีแดงบนแผนที่.

เลื่อนเมาส์ไปเหนือจุดเพื่อดูชื่อสถานี.

แล้วคลิกเพื่อดูสังเกตการณ์และการพยากรณ์สภาพอากาศ.

ในการเปลี่ยนแผนที่: คลิกที่ปุ่มสีเขียวที่มีกากบาทสีดำเพื่อซูมเข้า; ที่ปุ่มสีเขียวที่มีขีดเพื่อซูมออก; หรือที่ลูกศรสีเขียวเพื่อไปยังแผนที่ที่อยู่ติดกัน.


METAR-TAF: